createdAt,value
2022-10-12T00:00:03.672Z,1
2022-10-12T00:01:57.222Z,1
2022-10-12T00:03:57.073Z,1
2022-10-12T00:05:54.867Z,1
2022-10-12T00:08:03.896Z,1
2022-10-12T00:09:58.181Z,1
2022-10-12T00:11:57.130Z,1
2022-10-12T00:13:56.938Z,1
2022-10-12T00:15:57.837Z,1
2022-10-12T00:17:57.062Z,1
2022-10-12T00:20:00.482Z,1
2022-10-12T00:22:00.364Z,1
2022-10-12T00:24:03.596Z,1
2022-10-12T00:25:56.952Z,1
2022-10-12T00:27:56.361Z,1
2022-10-12T00:30:00.512Z,1
2022-10-12T00:31:56.754Z,1
2022-10-12T00:35:56.771Z,0
2022-10-12T00:37:57.316Z,0
2022-10-12T00:39:57.543Z,1
2022-10-12T00:41:56.766Z,0
2022-10-12T00:43:59.991Z,1
2022-10-12T00:45:59.719Z,0
2022-10-12T00:47:57.191Z,0
2022-10-12T00:52:00.221Z,0
2022-10-12T00:53:56.877Z,0
2022-10-12T00:55:56.314Z,0
2022-10-12T00:57:56.360Z,0
2022-10-12T01:00:00.246Z,0
2022-10-12T01:05:56.382Z,0
2022-10-12T01:08:00.495Z,0
2022-10-12T01:09:56.735Z,0
2022-10-12T01:11:56.592Z,0
2022-10-12T01:13:56.533Z,0
2022-10-12T01:15:56.781Z,1
2022-10-12T01:17:57.026Z,1
2022-10-12T01:19:57.423Z,1
2022-10-12T01:24:00.198Z,1
2022-10-12T01:25:56.515Z,1
2022-10-12T01:28:00.490Z,1
2022-10-12T01:29:56.842Z,1
2022-10-12T01:31:57.337Z,0
2022-10-12T01:34:03.641Z,0
2022-10-12T01:35:57.005Z,1
2022-10-12T01:37:57.198Z,1
2022-10-12T01:40:03.686Z,0
2022-10-12T01:41:56.340Z,0
2022-10-12T01:43:57.134Z,0
2022-10-12T01:45:56.440Z,0
2022-10-12T01:48:01.934Z,0
2022-10-12T01:49:56.879Z,0
2022-10-12T01:51:56.657Z,0
2022-10-12T01:53:57.347Z,0
2022-10-12T01:55:59.952Z,0
2022-10-12T01:57:56.278Z,1
2022-10-12T02:01:56.875Z,1
2022-10-12T02:03:56.350Z,1
2022-10-12T02:05:57.242Z,1
2022-10-12T02:07:57.051Z,1
2022-10-12T02:09:56.395Z,1
2022-10-12T02:11:56.674Z,1
2022-10-12T02:13:56.687Z,1
2022-10-12T02:15:57.632Z,1
2022-10-12T02:17:58.821Z,1
2022-10-12T02:20:00.368Z,1
2022-10-12T02:23:56.935Z,1
2022-10-12T02:25:56.405Z,1
2022-10-12T02:27:56.361Z,0
2022-10-12T02:29:56.341Z,1
2022-10-12T02:31:56.795Z,1
2022-10-12T02:33:56.899Z,1
2022-10-12T02:36:00.602Z,1
2022-10-12T02:38:03.439Z,1
2022-10-12T02:39:57.417Z,1
2022-10-12T02:42:00.462Z,1
2022-10-12T02:43:57.102Z,1
2022-10-12T02:45:56.819Z,1
2022-10-12T02:47:57.729Z,1
2022-10-12T02:49:56.428Z,1
2022-10-12T02:51:56.339Z,1
2022-10-12T02:53:56.872Z,1
2022-10-12T02:56:00.578Z,1
2022-10-12T02:57:56.246Z,1
2022-10-12T03:00:03.747Z,1
2022-10-12T03:01:56.425Z,1
2022-10-12T03:04:00.302Z,1
2022-10-12T03:05:56.335Z,1
2022-10-12T03:07:56.952Z,1
2022-10-12T03:09:56.261Z,1
2022-10-12T03:11:57.307Z,1
2022-10-12T03:14:00.414Z,1
2022-10-12T03:16:00.370Z,1
2022-10-12T03:17:56.927Z,1
2022-10-12T03:19:57.298Z,1
2022-10-12T03:22:00.458Z,1
2022-10-12T03:23:56.777Z,1
2022-10-12T03:25:57.173Z,1
2022-10-12T03:28:00.597Z,1
2022-10-12T03:29:56.367Z,1
2022-10-12T03:32:00.428Z,1
2022-10-12T03:34:00.568Z,1
2022-10-12T03:35:57.166Z,1
2022-10-12T03:37:54.531Z,1
2022-10-12T03:40:03.726Z,1
2022-10-12T03:43:54.344Z,1
2022-10-12T03:47:59.003Z,1
2022-10-12T03:49:54.319Z,1
2022-10-12T03:51:56.778Z,1
2022-10-12T03:53:56.260Z,1
2022-10-12T03:55:59.562Z,1
2022-10-12T03:57:56.941Z,1
2022-10-12T03:59:56.733Z,1
2022-10-12T04:01:56.539Z,1
2022-10-12T04:03:56.831Z,1
2022-10-12T04:05:57.096Z,1
2022-10-12T04:07:59.368Z,1
2022-10-12T04:09:56.259Z,1
2022-10-12T04:11:56.385Z,1
2022-10-12T04:14:01.077Z,1
2022-10-12T04:16:00.500Z,1
2022-10-12T04:17:56.782Z,1
2022-10-12T04:19:56.316Z,1
2022-10-12T04:21:56.699Z,1
2022-10-12T04:23:57.217Z,1
2022-10-12T04:26:00.601Z,1
2022-10-12T04:28:00.003Z,1
2022-10-12T04:29:59.990Z,1
2022-10-12T04:31:57.160Z,1
2022-10-12T04:33:56.489Z,1
2022-10-12T04:35:57.043Z,1
2022-10-12T04:37:59.585Z,1
2022-10-12T04:39:57.294Z,1
2022-10-12T04:41:57.171Z,1
2022-10-12T04:44:00.391Z,1
2022-10-12T04:45:56.992Z,1
2022-10-12T04:47:57.373Z,1
2022-10-12T04:50:00.414Z,0
2022-10-12T04:53:56.944Z,0
2022-10-12T04:55:56.559Z,0.1
2022-10-12T04:57:56.573Z,0.1
2022-10-12T05:00:03.357Z,0.2
2022-10-12T05:01:56.538Z,0.3
2022-10-12T05:04:00.531Z,0.4
2022-10-12T05:05:56.860Z,0.5
2022-10-12T05:07:56.464Z,0.8
2022-10-12T05:09:57.036Z,1.2
2022-10-12T05:11:56.964Z,1.6
2022-10-12T05:14:00.441Z,2.3
2022-10-12T05:15:57.155Z,3.5
2022-10-12T05:17:56.384Z,5
2022-10-12T05:19:56.526Z,6.4
2022-10-12T05:22:00.506Z,8.6
2022-10-12T05:23:56.950Z,11
2022-10-12T05:25:56.948Z,13.5
2022-10-12T05:27:57.170Z,16.4
2022-10-12T05:30:05.631Z,20.1
2022-10-12T05:31:56.993Z,23.3
2022-10-12T05:33:56.417Z,27.1
2022-10-12T05:35:57.237Z,30
2022-10-12T05:37:57.342Z,34.8
2022-10-12T05:39:57.203Z,42.5
2022-10-12T05:41:55.238Z,51.9
2022-10-12T05:43:57.092Z,63.4
2022-10-12T05:45:56.495Z,77.5
2022-10-12T05:47:59.942Z,85.6
2022-10-12T05:49:56.334Z,90
2022-10-12T05:52:00.701Z,99.5
2022-10-12T05:54:00.491Z,104.6
2022-10-12T05:55:56.416Z,115.6
2022-10-12T05:57:57.080Z,121.5
2022-10-12T05:59:57.107Z,134.3
2022-10-12T06:01:57.086Z,148.4
2022-10-12T06:03:56.449Z,164
2022-10-12T06:05:57.185Z,181.3
2022-10-12T06:07:57.281Z,200.3
2022-10-12T06:10:03.719Z,221.4
2022-10-12T06:11:56.962Z,244.7
2022-10-12T06:13:56.507Z,257.2
2022-10-12T06:15:56.490Z,270.4
2022-10-12T06:17:57.021Z,270.4
2022-10-12T06:19:56.424Z,284.3
2022-10-12T06:22:00.339Z,298.9
2022-10-12T06:23:56.784Z,314.2
2022-10-12T06:26:00.758Z,347.2
2022-10-12T06:27:59.508Z,365
2022-10-12T06:29:54.966Z,365
2022-10-12T06:32:00.874Z,347.2
2022-10-12T06:33:56.397Z,383.8
2022-10-12T06:36:00.476Z,424.1
2022-10-12T06:37:56.452Z,468.7
2022-10-12T06:39:57.019Z,544.6
2022-10-12T06:41:57.174Z,572.5
2022-10-12T06:43:56.728Z,601.8
2022-10-12T06:45:56.317Z,601.8
2022-10-12T06:48:03.956Z,601.8
2022-10-12T06:49:59.549Z,572.5
2022-10-12T06:51:56.906Z,544.6
2022-10-12T06:53:56.643Z,544.6
2022-10-12T06:55:57.247Z,544.6
2022-10-12T06:59:56.939Z,572.5
2022-10-12T07:01:56.480Z,601.8
2022-10-12T07:04:00.469Z,601.8
2022-10-12T07:05:56.418Z,665.1
2022-10-12T07:07:56.909Z,699.2
2022-10-12T07:09:57.074Z,772.8
2022-10-12T07:11:56.801Z,812.4
2022-10-12T07:14:03.323Z,854.1
2022-10-12T07:15:56.423Z,854.1
2022-10-12T07:17:56.497Z,772.8
2022-10-12T07:20:00.582Z,699.2
2022-10-12T07:21:57.069Z,735.1
2022-10-12T07:24:00.031Z,854.1
2022-10-12T07:25:57.084Z,992.3
2022-10-12T07:28:00.495Z,1152.9
2022-10-12T07:29:56.435Z,1274.1
2022-10-12T07:31:56.539Z,1274.1
2022-10-12T07:33:57.119Z,1212
2022-10-12T07:36:13.705Z,1212
2022-10-12T07:37:57.118Z,1212
2022-10-12T07:39:56.754Z,1212
2022-10-12T07:42:00.299Z,1408.1
2022-10-12T07:43:57.482Z,1480.3
2022-10-12T07:46:00.345Z,1480.3
2022-10-12T07:47:56.444Z,1339.4
2022-10-12T07:49:57.190Z,1408.1
2022-10-12T07:51:54.798Z,1408.1
2022-10-12T07:54:00.596Z,1556.2
2022-10-12T07:55:56.523Z,1556.2
2022-10-12T07:58:03.620Z,1636
2022-10-12T07:59:57.116Z,1719.9
2022-10-12T08:01:56.514Z,1808
2022-10-12T08:04:00.384Z,1636
2022-10-12T08:05:57.034Z,1480.3
2022-10-12T08:07:57.981Z,1808
2022-10-12T08:09:56.424Z,2208.3
2022-10-12T08:11:56.467Z,2565.7
2022-10-12T08:14:00.621Z,2565.7
2022-10-12T08:15:56.519Z,2697.3
2022-10-12T08:17:56.396Z,2697.3
2022-10-12T08:19:57.146Z,2565.7
2022-10-12T08:21:56.469Z,2321.6
2022-10-12T08:23:58.050Z,2321.6
2022-10-12T08:25:56.888Z,2321.6
2022-10-12T08:27:57.049Z,2440.6
2022-10-12T08:29:56.873Z,2565.7
2022-10-12T08:31:57.320Z,2697.3
2022-10-12T08:36:25.192Z,1998.2
2022-10-12T08:39:51.752Z,1998.2
2022-10-12T08:44:20.131Z,2208.3
2022-10-12T08:46:18.784Z,2100.6
2022-10-12T08:51:06.191Z,2208.3
2022-10-12T08:53:05.887Z,2440.6
2022-10-12T08:55:10.005Z,2440.6
2022-10-12T08:57:09.872Z,2208.3
2022-10-12T08:59:06.453Z,2208.3
2022-10-12T09:01:10.582Z,2321.6
2022-10-12T09:03:06.596Z,2440.6
2022-10-12T09:05:05.873Z,2440.6
2022-10-12T09:07:06.810Z,2565.7
2022-10-12T09:09:06.688Z,2565.7
2022-10-12T09:11:05.874Z,2321.6
2022-10-12T09:13:12.037Z,2100.6
2022-10-12T09:15:05.896Z,1998.2
2022-10-12T09:17:10.043Z,1998.2
2022-10-12T09:19:06.456Z,2100.6
2022-10-12T09:21:06.514Z,2100.6
2022-10-12T09:23:06.705Z,1900.7
2022-10-12T09:25:09.492Z,1900.7
2022-10-12T09:27:06.357Z,2100.6
2022-10-12T09:29:09.879Z,2440.6
2022-10-12T09:31:13.101Z,2440.6
2022-10-12T09:33:06.439Z,2208.3
2022-10-12T09:35:07.139Z,2321.6
2022-10-12T09:37:06.351Z,2208.3
2022-10-12T09:39:09.934Z,2208.3
2022-10-12T09:43:06.495Z,2440.6
2022-10-12T09:45:06.543Z,2565.7
2022-10-12T09:47:09.955Z,3133.8
2022-10-12T09:49:09.852Z,3641
2022-10-12T09:51:06.419Z,4023.9
2022-10-12T09:53:06.522Z,4023.9
2022-10-12T09:55:09.563Z,4230.2
2022-10-12T09:57:09.837Z,4023.9
2022-10-12T09:59:06.380Z,3827.6
2022-10-12T10:01:06.521Z,3641
2022-10-12T10:03:09.878Z,3463.4
2022-10-12T10:05:09.946Z,3294.5
2022-10-12T10:07:06.739Z,3463.4
2022-10-12T10:09:06.475Z,3463.4
2022-10-12T10:11:06.470Z,3463.4
2022-10-12T10:13:06.543Z,3641
2022-10-12T10:15:06.667Z,3827.6
2022-10-12T10:17:06.008Z,3641
2022-10-12T10:19:13.031Z,3463.4
2022-10-12T10:21:06.774Z,3294.5
2022-10-12T10:23:06.331Z,3294.5
2022-10-12T10:25:06.561Z,2981
2022-10-12T10:27:12.935Z,2981
2022-10-12T10:31:05.801Z,3294.5
2022-10-12T10:33:06.719Z,3294.5
2022-10-12T10:35:07.044Z,3294.5
2022-10-12T10:37:06.620Z,3294.5
2022-10-12T10:39:05.838Z,3294.5
2022-10-12T10:41:09.990Z,3463.4
2022-10-12T10:43:06.433Z,3294.5
2022-10-12T10:45:06.529Z,3133.8
2022-10-12T10:47:09.572Z,2981
2022-10-12T10:49:05.999Z,2835.6
2022-10-12T10:51:06.219Z,2835.6
2022-10-12T10:53:06.048Z,2697.3
2022-10-12T10:55:09.536Z,2697.3
2022-10-12T10:57:09.573Z,2565.7
2022-10-12T10:59:09.891Z,2440.6
2022-10-12T11:01:08.049Z,2321.6
2022-10-12T11:03:06.486Z,2100.6
2022-10-12T11:05:06.587Z,2100.6
2022-10-12T11:07:06.365Z,2100.6
2022-10-12T11:09:06.588Z,2100.6
2022-10-12T11:11:09.767Z,2100.6
2022-10-12T11:13:05.767Z,2100.6
2022-10-12T11:15:09.995Z,2100.6
2022-10-12T11:17:05.801Z,2208.3
2022-10-12T11:19:09.719Z,2208.3
2022-10-12T11:21:09.138Z,2208.3
2022-10-12T11:23:05.956Z,2100.6
2022-10-12T11:25:06.695Z,2100.6
2022-10-12T11:27:06.556Z,1900.7
2022-10-12T11:29:06.514Z,1900.7
2022-10-12T11:31:05.980Z,2100.6
2022-10-12T11:33:06.472Z,2208.3
2022-10-12T11:35:04.444Z,2321.6
2022-10-12T11:37:18.984Z,2208.3
2022-10-12T11:39:09.533Z,2208.3
2022-10-12T11:41:19.404Z,2208.3
2022-10-12T11:43:06.692Z,2208.3
2022-10-12T11:45:09.824Z,2100.6
2022-10-12T11:47:09.731Z,1998.2
2022-10-12T11:49:06.448Z,1998.2
2022-10-12T11:51:05.938Z,1900.7
2022-10-12T11:53:06.142Z,1900.7
2022-10-12T11:55:05.955Z,1900.7
2022-10-12T11:57:05.930Z,2100.6
2022-10-12T11:59:06.610Z,2208.3
2022-10-12T12:01:13.959Z,2440.6
2022-10-12T12:03:05.782Z,2565.7
2022-10-12T12:05:06.352Z,2565.7
2022-10-12T12:07:06.391Z,2565.7
2022-10-12T12:09:06.037Z,2440.6
2022-10-12T12:11:05.794Z,2321.6
2022-10-12T12:13:09.958Z,2208.3
2022-10-12T12:15:06.523Z,2208.3
2022-10-12T12:17:10.136Z,2208.3
2022-10-12T12:19:06.784Z,2208.3
2022-10-12T12:21:07.872Z,2208.3
2022-10-12T12:23:06.455Z,2208.3
2022-10-12T12:25:06.368Z,2208.3
2022-10-12T12:27:13.043Z,2208.3
2022-10-12T12:29:06.515Z,2208.3
2022-10-12T12:31:06.066Z,2208.3
2022-10-12T12:35:09.221Z,2100.6
2022-10-12T12:37:06.527Z,1998.2
2022-10-12T12:39:13.272Z,1998.2
2022-10-12T12:41:06.699Z,1998.2
2022-10-12T12:43:06.293Z,1998.2
2022-10-12T12:45:10.930Z,1998.2
2022-10-12T12:47:26.383Z,1998.2
2022-10-12T12:49:06.675Z,1998.2
2022-10-12T12:51:07.736Z,1998.2
2022-10-12T12:53:05.948Z,1998.2
2022-10-12T12:55:09.596Z,1998.2
2022-10-12T12:57:13.022Z,1998.2
2022-10-12T12:59:06.407Z,1998.2
2022-10-12T13:01:06.531Z,1998.2
2022-10-12T13:03:07.702Z,2100.6
2022-10-12T13:05:06.700Z,2100.6
2022-10-12T13:07:06.487Z,2100.6
2022-10-12T13:09:13.421Z,2208.3
2022-10-12T13:11:09.560Z,2321.6
2022-10-12T13:13:05.943Z,2321.6
2022-10-12T13:15:06.457Z,2321.6
2022-10-12T13:17:33.204Z,2321.6
2022-10-12T13:19:06.405Z,2321.6
2022-10-12T13:21:06.330Z,2321.6
2022-10-12T13:23:05.923Z,2321.6
2022-10-12T13:25:09.913Z,2208.3
2022-10-12T13:27:09.884Z,2208.3
2022-10-12T13:29:09.638Z,2100.6
2022-10-12T13:31:09.969Z,2100.6
2022-10-12T13:33:06.549Z,1998.2
2022-10-12T13:35:06.496Z,1900.7
2022-10-12T13:37:06.622Z,1900.7
2022-10-12T13:39:08.687Z,1808
2022-10-12T13:41:05.975Z,1719.9
2022-10-12T13:43:09.989Z,1719.9
2022-10-12T13:45:06.931Z,1719.9
2022-10-12T13:47:09.502Z,1719.9
2022-10-12T13:49:13.158Z,1719.9
2022-10-12T13:51:06.509Z,1719.9
2022-10-12T13:53:06.089Z,1719.9
2022-10-12T13:55:06.114Z,1719.9
2022-10-12T13:57:05.874Z,1808
2022-10-12T13:59:07.134Z,1808
2022-10-12T14:01:06.169Z,1900.7
2022-10-12T14:03:06.009Z,1900.7
2022-10-12T14:05:06.670Z,1900.7
2022-10-12T14:07:10.162Z,1900.7
2022-10-12T14:11:05.938Z,1719.9
2022-10-12T14:13:06.174Z,1719.9
2022-10-12T14:15:07.737Z,1719.9
2022-10-12T14:17:06.038Z,1719.9
2022-10-12T14:19:08.971Z,1636
2022-10-12T14:21:05.887Z,1636
2022-10-12T14:23:13.074Z,1556.2
2022-10-12T14:25:06.470Z,1480.3
2022-10-12T14:27:06.597Z,1480.3
2022-10-12T14:29:05.913Z,1408.1
2022-10-12T14:31:09.673Z,1480.3
2022-10-12T14:33:09.938Z,1556.2
2022-10-12T14:37:05.913Z,1636
2022-10-12T14:39:06.440Z,1719.9
2022-10-12T14:41:06.493Z,1719.9
2022-10-12T14:43:06.629Z,1719.9
2022-10-12T14:45:06.469Z,1719.9
2022-10-12T14:47:15.708Z,1636
2022-10-12T14:49:09.526Z,1636
2022-10-12T14:51:04.561Z,1556.2
2022-10-12T14:53:09.967Z,1556.2
2022-10-12T14:55:05.892Z,1480.3
2022-10-12T14:57:13.268Z,1408.1
2022-10-12T14:59:04.508Z,1408.1
2022-10-12T15:01:06.797Z,1339.4
2022-10-12T15:05:05.892Z,1339.4
2022-10-12T15:07:06.022Z,1339.4
2022-10-12T15:09:09.547Z,1339.4
2022-10-12T15:11:06.158Z,1339.4
2022-10-12T15:13:09.981Z,1274.1
2022-10-12T15:15:04.463Z,1274.1
2022-10-12T15:19:15.998Z,1274.1
2022-10-12T15:21:14.576Z,1339.4
2022-10-12T15:23:15.390Z,1480.3
2022-10-12T15:25:15.194Z,1556.2
2022-10-12T15:27:15.323Z,1556.2
2022-10-12T15:29:18.735Z,1480.3
2022-10-12T15:31:17.735Z,1408.1
2022-10-12T15:33:18.572Z,1339.4
2022-10-12T15:35:15.011Z,1274.1
2022-10-12T15:37:15.334Z,1212
2022-10-12T15:39:15.544Z,1152.9
2022-10-12T15:41:18.507Z,1043.1
2022-10-12T15:45:16.561Z,897.8
2022-10-12T15:47:15.672Z,812.4
2022-10-12T15:49:18.818Z,699.2
2022-10-12T15:51:18.202Z,665.1
2022-10-12T15:55:15.412Z,601.8
2022-10-12T15:57:18.419Z,544.6
2022-10-12T15:59:15.224Z,518
2022-10-12T16:01:15.426Z,468.7
2022-10-12T16:03:14.938Z,445.9
2022-10-12T16:05:14.661Z,424.1
2022-10-12T16:07:18.760Z,403.4
2022-10-12T16:09:15.125Z,383.8
2022-10-12T16:11:18.547Z,365
2022-10-12T16:13:18.635Z,330.3
2022-10-12T16:15:18.610Z,298.9
2022-10-12T16:17:15.394Z,270.4
2022-10-12T16:19:15.059Z,244.7
2022-10-12T16:21:15.022Z,210.6
2022-10-12T16:23:19.659Z,190.6
2022-10-12T16:25:14.722Z,156
2022-10-12T16:27:15.325Z,127.7
2022-10-12T16:29:21.823Z,99.5
2022-10-12T16:31:15.044Z,81.5
2022-10-12T16:33:14.574Z,66.7
2022-10-12T16:35:22.047Z,57.4
2022-10-12T16:37:18.480Z,49.4
2022-10-12T16:39:21.854Z,42.5
2022-10-12T16:43:15.094Z,27.1
2022-10-12T16:45:14.432Z,21.1
2022-10-12T16:47:21.299Z,15.6
2022-10-12T16:49:15.544Z,11.6
2022-10-12T16:51:15.158Z,8.2
2022-10-12T16:53:17.619Z,5.8
2022-10-12T16:55:14.191Z,3.7
2022-10-12T16:57:18.363Z,2.3
2022-10-12T16:59:14.885Z,1.6
2022-10-12T17:01:15.278Z,1.2
2022-10-12T17:03:15.178Z,0.8
2022-10-12T17:05:18.498Z,0.5
2022-10-12T17:07:17.940Z,0.3
2022-10-12T17:09:14.984Z,0.2
2022-10-12T17:11:21.710Z,0.2
2022-10-12T17:13:18.313Z,0.1
2022-10-12T17:15:14.517Z,0
2022-10-12T17:17:18.620Z,0
2022-10-12T17:19:14.561Z,0
2022-10-12T17:21:14.539Z,0
2022-10-12T17:23:15.038Z,1
2022-10-12T17:25:15.155Z,1
2022-10-12T17:27:14.757Z,1
2022-10-12T17:29:18.649Z,1
2022-10-12T17:31:15.195Z,1
2022-10-12T17:33:15.153Z,1
2022-10-12T17:35:21.861Z,1
2022-10-12T17:37:14.662Z,1
2022-10-12T17:39:18.594Z,1
2022-10-12T17:41:14.534Z,1
2022-10-12T17:45:14.529Z,1
2022-10-12T17:47:14.935Z,1
2022-10-12T17:49:15.079Z,1
2022-10-12T17:51:15.302Z,1
2022-10-12T17:53:15.346Z,1
2022-10-12T17:55:29.846Z,1
2022-10-12T17:57:14.710Z,1
2022-10-12T17:59:16.244Z,1
2022-10-12T18:01:15.357Z,1
2022-10-12T18:03:14.820Z,1
2022-10-12T18:05:14.647Z,1
2022-10-12T18:07:15.629Z,1
2022-10-12T18:09:14.566Z,1
2022-10-12T18:11:15.226Z,1
2022-10-12T18:13:18.245Z,1
2022-10-12T18:15:14.948Z,1
2022-10-12T18:17:15.030Z,1
2022-10-12T18:19:14.784Z,1
2022-10-12T18:21:18.682Z,1
2022-10-12T18:23:18.615Z,1
2022-10-12T18:25:15.058Z,1
2022-10-12T18:27:14.611Z,1
2022-10-12T18:29:14.648Z,1
2022-10-12T18:31:15.346Z,1
2022-10-12T18:33:21.487Z,1
2022-10-12T18:35:18.553Z,1
2022-10-12T18:39:14.601Z,1
2022-10-12T18:41:15.180Z,1
2022-10-12T18:43:17.769Z,1
2022-10-12T18:45:15.142Z,1
2022-10-12T18:47:22.139Z,1
2022-10-12T18:49:21.826Z,1
2022-10-12T18:51:15.433Z,1
2022-10-12T18:53:14.633Z,1
2022-10-12T18:55:14.460Z,1
2022-10-12T18:57:14.442Z,1
2022-10-12T19:01:18.709Z,1
2022-10-12T19:03:21.767Z,1
2022-10-12T19:05:18.466Z,1
2022-10-12T19:09:14.583Z,1
2022-10-12T19:11:21.751Z,1
2022-10-12T19:13:16.069Z,1
2022-10-12T19:15:14.740Z,1
2022-10-12T19:17:20.861Z,1
2022-10-12T19:19:19.871Z,1
2022-10-12T19:21:15.307Z,1
2022-10-12T19:23:14.663Z,1
2022-10-12T19:25:21.793Z,1
2022-10-12T19:27:14.495Z,1
2022-10-12T19:29:14.507Z,1
2022-10-12T19:31:14.709Z,1
2022-10-12T19:33:14.694Z,1
2022-10-12T19:35:15.028Z,1
2022-10-12T19:37:14.583Z,1
2022-10-12T19:39:14.665Z,1
2022-10-12T19:41:14.924Z,1
2022-10-12T19:43:20.089Z,1
2022-10-12T19:45:18.572Z,1
2022-10-12T19:47:14.515Z,1
2022-10-12T19:49:15.060Z,1
2022-10-12T19:51:14.724Z,1
2022-10-12T19:53:18.503Z,1
2022-10-12T19:55:15.132Z,1
2022-10-12T19:57:14.561Z,1
2022-10-12T19:59:19.365Z,1
2022-10-12T20:01:21.885Z,1
2022-10-12T20:03:14.927Z,1
2022-10-12T20:05:18.652Z,1
2022-10-12T20:07:14.536Z,1
2022-10-12T20:09:18.318Z,1
2022-10-12T20:11:18.441Z,1
2022-10-12T20:13:14.957Z,1
2022-10-12T20:15:18.609Z,1
2022-10-12T20:17:15.106Z,1
2022-10-12T20:19:18.570Z,1
2022-10-12T20:21:14.600Z,1
2022-10-12T20:23:15.211Z,1
2022-10-12T20:25:14.574Z,1
2022-10-12T20:27:14.513Z,1
2022-10-12T20:29:21.618Z,1
2022-10-12T20:31:14.660Z,1
2022-10-12T20:33:18.247Z,1
2022-10-12T20:35:15.080Z,1
2022-10-12T20:39:15.140Z,1
2022-10-12T20:41:14.803Z,1
2022-10-12T20:43:15.196Z,1
2022-10-12T20:45:15.661Z,1
2022-10-12T20:47:18.667Z,1
2022-10-12T20:49:18.602Z,1
2022-10-12T20:51:14.708Z,1
2022-10-12T20:53:14.584Z,1
2022-10-12T20:57:15.273Z,1
2022-10-12T20:59:21.616Z,1
2022-10-12T21:01:14.946Z,1
2022-10-12T21:03:15.176Z,1
2022-10-12T21:05:15.058Z,1
2022-10-12T21:07:17.596Z,1
2022-10-12T21:09:15.156Z,1
2022-10-12T21:11:15.536Z,1
2022-10-12T21:13:14.672Z,1
2022-10-12T21:15:18.587Z,1
2022-10-12T21:17:18.125Z,1
2022-10-12T21:19:15.604Z,1
2022-10-12T21:21:15.225Z,1
2022-10-12T21:23:18.165Z,1
2022-10-12T21:25:14.948Z,1
2022-10-12T21:27:15.024Z,1
2022-10-12T21:29:18.462Z,1
2022-10-12T21:31:14.554Z,1
2022-10-12T21:33:14.528Z,1
2022-10-12T21:35:15.273Z,1
2022-10-12T21:37:15.422Z,1
2022-10-12T21:39:15.010Z,1
2022-10-12T21:41:14.771Z,1
2022-10-12T21:43:14.714Z,1
2022-10-12T21:45:21.451Z,1
2022-10-12T21:47:18.598Z,1
2022-10-12T21:49:18.664Z,1
2022-10-12T21:51:15.063Z,1
2022-10-12T21:53:14.599Z,1
2022-10-12T21:55:15.101Z,1
2022-10-12T21:57:15.065Z,1
2022-10-12T21:59:14.672Z,1
2022-10-12T22:01:17.873Z,1
2022-10-12T22:03:18.025Z,1
2022-10-12T22:05:18.614Z,1
2022-10-12T22:07:14.526Z,1
2022-10-12T22:09:15.344Z,1
2022-10-12T22:11:14.719Z,1
2022-10-12T22:13:15.088Z,1
2022-10-12T22:15:18.692Z,1
2022-10-12T22:17:15.046Z,1
2022-10-12T22:19:14.720Z,1
2022-10-12T22:21:15.378Z,1
2022-10-12T22:23:15.490Z,1
2022-10-12T22:25:24.066Z,1
2022-10-12T22:27:18.557Z,1
2022-10-12T22:29:18.692Z,1
2022-10-12T22:31:15.115Z,1
2022-10-12T22:33:14.679Z,1
2022-10-12T22:35:15.519Z,1
2022-10-12T22:37:18.565Z,1
2022-10-12T22:39:15.288Z,1
2022-10-12T22:41:15.221Z,1
2022-10-12T22:43:15.170Z,1
2022-10-12T22:45:14.589Z,1
2022-10-12T22:47:14.605Z,1
2022-10-12T22:49:14.878Z,1
2022-10-12T22:51:15.275Z,1
2022-10-12T22:53:14.599Z,1
2022-10-12T22:55:15.187Z,1
2022-10-12T22:57:15.336Z,1
2022-10-12T22:59:15.076Z,1
2022-10-12T23:01:20.641Z,1
2022-10-12T23:03:15.109Z,1
2022-10-12T23:07:14.596Z,1
2022-10-12T23:09:15.170Z,1
2022-10-12T23:11:18.546Z,1
2022-10-12T23:15:18.539Z,1
2022-10-12T23:17:15.087Z,1
2022-10-12T23:19:15.548Z,1
2022-10-12T23:21:18.664Z,1
2022-10-12T23:23:14.481Z,1
2022-10-12T23:25:18.271Z,1
2022-10-12T23:27:14.317Z,1
2022-10-12T23:29:14.687Z,1
2022-10-12T23:31:18.617Z,1
2022-10-12T23:33:21.841Z,1
2022-10-12T23:35:18.208Z,1
2022-10-12T23:37:18.559Z,1
2022-10-12T23:39:18.466Z,1
2022-10-12T23:41:14.487Z,1
2022-10-12T23:43:15.090Z,1
2022-10-12T23:45:15.579Z,1
2022-10-12T23:47:15.576Z,1
2022-10-12T23:49:15.197Z,1
2022-10-12T23:51:14.887Z,1
2022-10-12T23:53:14.608Z,1
2022-10-12T23:55:15.164Z,1
2022-10-12T23:57:34.631Z,1
2022-10-12T23:59:14.583Z,1
